Time;durP1;ratioP1;P1;durP2;ratioP2;P2;SDS_P1;SDS_P2;PMS_P1;PMS_P2;Temp;Humidity;BMP_temperature;BMP_pressure;BME280_temperature;BME280_humidity;BME280_pressure;Samples;Min_cycle;Max_cycle;Signal;HPM_P1;HPM_P2
2022/01/28 00:01:26;;;;;;;1.70;1.57;;;1.50;99.90;;;;;;5112500;28;20306;-77
2022/01/28 00:04:00;;;;;;;1.30;1.20;;;;;;;;;;5114002;28;20161;-77
2022/01/28 00:06:26;;;;;;;1.13;1.00;;;1.50;99.90;;;;;;5113762;28;20238;-77
2022/01/28 00:08:52;;;;;;;1.87;1.20;;;1.50;99.90;;;;;;5113845;28;20203;-77
2022/01/28 00:11:17;;;;;;;1.20;1.10;;;1.70;99.90;;;;;;5113719;28;20649;-77
2022/01/28 00:13:49;;;;;;;1.63;1.53;;;;;;;;;;5113781;28;20211;-77
2022/01/28 00:40:20;;;;;;;1.87;1.40;;;1.60;99.90;;;;;;5114050;28;20174;-77
2022/01/28 00:42:46;;;;;;;2.20;1.53;;;1.40;99.90;;;;;;5113379;28;20203;-77
2022/01/28 00:45:12;;;;;;;2.23;1.80;;;1.40;99.90;;;;;;5113306;28;20625;-77
2022/01/28 00:47:38;;;;;;;2.03;1.73;;;;;;;;;;5113209;28;20192;-77
2022/01/28 00:50:05;;;;;;;2.67;2.00;;;1.50;99.90;;;;;;5113366;28;20167;-77
2022/01/28 00:52:30;;;;;;;1.53;1.43;;;1.50;99.90;;;;;;5111989;28;20339;-77
2022/01/28 00:54:56;;;;;;;1.77;1.50;;;1.50;99.90;;;;;;5111864;28;20257;-77
2022/01/28 00:57:22;;;;;;;2.03;1.60;;;1.50;99.90;;;;;;5112050;28;20205;-77
2022/01/28 00:59:48;;;;;;;2.40;2.00;;;;;;;;;;5113290;28;20328;-77
2022/01/28 01:02:13;;;;;;;2.40;1.80;;;1.30;99.90;;;;;;5115968;28;20199;-77
2022/01/28 01:04:40;;;;;;;2.80;2.10;;;1.50;99.90;;;;;;5113980;28;20184;-77
2022/01/28 01:07:08;;;;;;;2.93;2.20;;;1.40;99.90;;;;;;5113196;28;20229;-77
2022/01/28 01:09:34;;;;;;;3.23;1.80;;;1.50;99.90;;;;;;5111866;28;20178;-77
2022/01/28 01:12:00;;;;;;;1.63;1.53;;;1.30;99.90;;;;;;5113180;28;20173;-77
2022/01/28 01:14:26;;;;;;;1.17;1.07;;;;;;;;;;5113181;28;20189;-77
2022/01/28 01:19:26;;;;;;;1.63;1.53;;;;;;;;;;5113723;28;20225;-77
2022/01/28 01:21:57;;;;;;;1.97;1.67;;;;;;;;;;5112982;28;20205;-77
2022/01/28 01:24:25;;;;;;;1.73;1.63;;;1.60;99.90;;;;;;5111713;28;20252;-77
2022/01/28 01:26:51;;;;;;;1.57;1.47;;;1.30;99.90;;;;;;5113015;28;20598;-77
2022/01/28 01:29:19;;;;;;;2.17;1.57;;;1.30;99.90;;;;;;5113221;28;20174;-77
2022/01/28 01:31:46;;;;;;;1.97;1.67;;;1.40;99.90;;;;;;5111622;28;20230;-77
2022/01/28 01:34:18;;;;;;;1.80;1.30;;;1.40;99.90;;;;;;5112762;28;20224;-77
2022/01/28 01:36:44;;;;;;;3.00;2.27;;;1.30;99.90;;;;;;5111935;28;20291;-77
2022/01/28 01:39:10;;;;;;;3.30;2.17;;;;;;;;;;5116581;28;20586;-77
2022/01/28 01:41:50;;;;;;;2.20;1.87;;;1.40;99.90;;;;;;5116762;28;20255;-77
2022/01/28 01:45:11;;;;;;;2.60;2.17;;;1.50;99.90;;;;;;5116342;28;20303;-77
2022/01/28 01:52:40;;;;;;;5.53;2.23;;;1.20;99.90;;;;;;5116468;28;20214;-77
2022/01/28 01:55:07;;;;;;;2.97;2.10;;;1.30;99.90;;;;;;5116053;28;20179;-77
2022/01/28 01:57:33;;;;;;;3.40;2.57;;;1.30;99.90;;;;;;5114947;28;20209;-77
2022/01/28 01:59:59;;;;;;;3.13;2.43;;;;;;;;;;5116034;28;20204;-77
2022/01/28 02:02:25;;;;;;;5.37;2.40;;;1.30;99.90;;;;;;5115186;28;20207;-77
2022/01/28 02:04:51;;;;;;;3.03;2.53;;;;;;;;;;5116079;28;20655;-77
2022/01/28 02:07:18;;;;;;;2.63;2.43;;;1.30;99.90;;;;;;5116066;28;20202;-77
2022/01/28 02:09:43;;;;;;;3.87;2.90;;;1.30;99.90;;;;;;5116035;28;20767;-77
2022/01/28 02:12:09;;;;;;;4.30;2.90;;;1.30;99.90;;;;;;5116043;28;20205;-77
2022/01/28 02:14:35;;;;;;;3.90;3.07;;;1.20;99.90;;;;;;5116055;28;20660;-77
2022/01/28 02:17:02;;;;;;;5.43;2.97;;;;;;;;;;5114614;28;20201;-77
2022/01/28 02:19:28;;;;;;;4.50;2.77;;;;;;;;;;5115946;28;20171;-80
2022/01/28 02:21:54;;;;;;;3.30;2.40;;;1.50;99.90;;;;;;5115748;28;20236;-77
2022/01/28 02:24:34;;;;;;;3.30;2.83;;;1.30;99.90;;;;;;5115565;28;20205;-77
2022/01/28 02:27:00;;;;;;;3.47;2.63;;;;;;;;;;5115604;28;20242;-76
2022/01/28 02:29:29;;;;;;;4.27;2.93;;;;;;;;;;5116009;28;20176;-76
2022/01/28 02:31:56;;;;;;;3.03;2.43;;;1.00;99.90;;;;;;5115665;28;20172;-76
2022/01/28 02:34:22;;;;;;;3.37;2.77;;;0.80;99.90;;;;;;5115616;28;20633;-76
2022/01/28 02:36:48;;;;;;;4.17;3.33;;;1.00;99.90;;;;;;5114032;28;20203;-76
2022/01/28 02:39:13;;;;;;;3.63;2.90;;;1.00;99.90;;;;;;5115724;28;20180;-76
2022/01/28 02:41:43;;;;;;;3.87;3.03;;;0.80;99.90;;;;;;5115515;28;20588;-76
2022/01/28 02:44:19;;;;;;;3.60;3.13;;;1.00;99.90;;;;;;5113822;28;20202;-76
2022/01/28 02:46:58;;;;;;;4.23;2.77;;;0.90;99.90;;;;;;5115320;28;20671;-76
2022/01/28 02:49:27;;;;;;;5.97;3.80;;;0.90;99.90;;;;;;5113519;28;20164;-76
2022/01/28 02:51:56;;;;;;;3.93;3.27;;;0.80;99.90;;;;;;5113853;28;20656;-76
2022/01/28 02:54:22;;;;;;;4.30;3.50;;;;;;;;;;5113721;28;20191;-77
2022/01/28 02:56:51;;;;;;;3.00;2.43;;;0.90;99.90;;;;;;5115156;28;20796;-76
2022/01/28 02:59:17;;;;;;;4.80;3.80;;;0.80;99.90;;;;;;5115493;28;20228;-76
2022/01/28 03:01:43;;;;;;;4.77;3.43;;;0.90;99.90;;;;;;5114943;28;20200;-76
2022/01/28 03:04:12;;;;;;;5.20;3.57;;;0.90;99.90;;;;;;5115213;28;20950;-76
2022/01/28 03:06:38;;;;;;;4.87;3.57;;;;;;;;;;5114798;28;20194;-76
2022/01/28 03:09:18;;;;;;;5.60;3.97;;;0.90;99.90;;;;;;5115333;28;20243;-76
2022/01/28 03:11:46;;;;;;;6.27;4.20;;;;;;;;;;5120677;28;20246;-76
2022/01/28 03:14:35;;;;;;;5.93;4.23;;;1.00;99.90;;;;;;5113304;28;20449;-76
2022/01/28 03:19:54;;;;;;;4.43;2.83;;;0.90;99.90;;;;;;5115020;28;20159;-76
2022/01/28 03:22:20;;;;;;;5.37;3.37;;;1.00;99.90;;;;;;5114525;28;20453;-76
2022/01/28 03:24:50;;;;;;;5.17;3.97;;;;;;;;;;5114374;28;20221;-76
2022/01/28 03:27:30;;;;;;;6.63;4.27;;;0.90;99.90;;;;;;5114691;28;20641;-76
2022/01/28 03:29:55;;;;;;;5.83;3.83;;;0.90;99.90;;;;;;5114734;28;20409;-76
2022/01/28 03:32:21;;;;;;;3.10;2.63;;;0.90;99.90;;;;;;5114412;28;20420;-76
2022/01/28 03:34:47;;;;;;;4.63;3.63;;;;;;;;;;5114243;28;20653;-76
2022/01/28 03:37:14;;;;;;;5.30;3.77;;;;;;;;;;5114519;28;20198;-76
2022/01/28 03:39:40;;;;;;;4.77;3.80;;;;;;;;;;5114593;28;20760;-76
2022/01/28 03:42:06;;;;;;;5.40;3.70;;;;;;;;;;5114208;28;20456;-76
2022/01/28 03:44:32;;;;;;;7.07;4.17;;;1.10;99.90;;;;;;5112724;28;20180;-77
2022/01/28 03:46:58;;;;;;;5.83;4.73;;;;;;;;;;5114255;28;20417;-76
2022/01/28 03:49:23;;;;;;;6.93;4.20;;;1.10;99.90;;;;;;5112783;28;20176;-76
2022/01/28 03:51:49;;;;;;;5.33;4.13;;;;;;;;;;5114107;28;20425;-76
2022/01/28 03:54:15;;;;;;;4.80;3.73;;;;;;;;;;5113844;28;20180;-77
2022/01/28 03:56:41;;;;;;;5.93;4.03;;;1.10;99.90;;;;;;5113945;28;20198;-76
2022/01/28 03:59:07;;;;;;;5.43;3.13;;;1.40;99.90;;;;;;5112131;28;20520;-76
2022/01/28 04:01:36;;;;;;;4.27;3.87;;;1.30;99.90;;;;;;5113560;28;20606;-76
2022/01/28 04:05:39;;;;;;;6.67;3.83;;;1.30;99.90;;;;;;5113879;28;20171;-76
2022/01/28 04:12:03;;;;;;;3.70;2.73;;;;;;;;;;5113867;28;20389;-76
2022/01/28 04:19:39;;;;;;;4.97;3.53;;;1.20;99.90;;;;;;5113946;28;20620;-76
2022/01/28 04:22:05;;;;;;;5.40;4.03;;;;;;;;;;5113578;28;20452;-76
2022/01/28 04:24:31;;;;;;;8.17;4.57;;;;;;;;;;5113655;28;20168;-76
2022/01/28 04:26:58;;;;;;;5.97;4.17;;;;;;;;;;5113470;28;20413;-76
2022/01/28 04:29:24;;;;;;;5.90;4.07;;;;;;;;;;5113578;28;20224;-76
2022/01/28 04:31:50;;;;;;;6.13;3.90;;;1.20;99.90;;;;;;5113514;28;20589;-76
2022/01/28 04:34:17;;;;;;;6.77;4.30;;;1.00;99.90;;;;;;5112069;28;20210;-76
2022/01/28 04:39:24;;;;;;;5.57;4.07;;;;;;;;;;5114204;28;20198;-76
2022/01/28 04:42:03;;;;;;;6.97;4.43;;;1.00;99.90;;;;;;5113935;28;20454;-76
2022/01/28 04:47:23;;;;;;;5.67;3.80;;;0.90;99.90;;;;;;5113367;28;20486;-76
2022/01/28 05:00:14;;;;;;;6.87;3.70;;;1.30;99.90;;;;;;5113351;28;20198;-76
2022/01/28 05:27:37;;;;;;;3.80;2.27;;;1.40;99.90;;;;;;5117196;28;20527;-76
2022/01/28 05:30:05;;;;;;;6.37;3.10;;;1.30;99.90;;;;;;5117053;28;20396;-76
2022/01/28 05:32:31;;;;;;;5.30;2.93;;;;;;;;;;5116645;28;20175;-76
2022/01/28 05:34:57;;;;;;;9.33;3.97;;;;;;;;;;5116669;28;20596;-76
2022/01/28 05:37:22;;;;;;;4.27;3.10;;;1.20;99.90;;;;;;5116831;28;20187;-76
2022/01/28 05:39:48;;;;;;;5.53;3.33;;;1.20;99.90;;;;;;5116880;28;20713;-76
2022/01/28 05:42:14;;;;;;;4.53;3.10;;;1.10;99.90;;;;;;5116478;28;20735;-76
2022/01/28 05:44:40;;;;;;;4.50;3.47;;;;;;;;;;5116215;28;20223;-76
2022/01/28 05:47:06;;;;;;;5.53;4.13;;;;;;;;;;5116702;28;20647;-76
2022/01/28 05:49:32;;;;;;;4.63;3.67;;;1.10;99.90;;;;;;5117226;28;20410;-76
2022/01/28 05:51:57;;;;;;;5.17;3.60;;;1.30;99.90;;;;;;5116692;28;20840;-76
2022/01/28 05:54:23;;;;;;;2.03;1.87;;;1.10;99.90;;;;;;5114823;28;20179;-76
2022/01/28 05:56:49;;;;;;;3.27;2.30;;;1.40;99.90;;;;;;5114881;28;20200;-76
2022/01/28 05:59:15;;;;;;;4.23;3.10;;;;;;;;;;5116297;28;20183;-76
2022/01/28 06:01:41;;;;;;;5.23;3.87;;;;;;;;;;5116160;28;20221;-76
2022/01/28 06:04:07;;;;;;;6.10;3.80;;;1.40;99.90;;;;;;5116027;28;20412;-76
2022/01/28 06:06:33;;;;;;;4.13;3.03;;;1.40;99.90;;;;;;5115948;28;20175;-76
2022/01/28 06:08:59;;;;;;;5.30;3.27;;;1.30;99.90;;;;;;5116107;28;20171;-76
2022/01/28 06:11:25;;;;;;;6.20;3.93;;;1.30;99.90;;;;;;5116098;28;20203;-76
2022/01/28 06:13:52;;;;;;;11.77;4.17;;;1.30;99.90;;;;;;5114761;28;20819;-76
2022/01/28 06:16:18;;;;;;;11.40;7.70;;;1.40;99.90;;;;;;5116185;28;20277;-76
2022/01/28 06:18:44;;;;;;;10.20;7.17;;;1.30;99.90;;;;;;5115814;28;20174;-76
2022/01/28 06:21:11;;;;;;;9.70;6.93;;;1.20;99.90;;;;;;5116408;28;20401;-76
2022/01/28 06:23:36;;;;;;;6.50;4.80;;;1.30;99.90;;;;;;5114885;28;20621;-76
2022/01/28 06:26:03;;;;;;;6.17;4.00;;;;;;;;;;5115610;28;20417;-77
2022/01/28 06:28:28;;;;;;;4.57;2.97;;;1.20;99.90;;;;;;5115619;28;20195;-76
2022/01/28 06:30:54;;;;;;;5.10;3.33;;;;;;;;;;5114401;28;20172;-76
2022/01/28 06:33:21;;;;;;;5.13;3.23;;;1.30;99.90;;;;;;5116271;28;20313;-77
2022/01/28 06:35:47;;;;;;;3.70;3.10;;;1.30;99.90;;;;;;5114908;28;20182;-78
2022/01/28 06:38:14;;;;;;;5.80;4.10;;;1.30;99.90;;;;;;5114497;28;20430;-77
2022/01/28 06:40:40;;;;;;;4.20;2.70;;;1.30;99.90;;;;;;5113835;28;20775;-77
2022/01/28 06:43:11;;;;;;;6.67;3.53;;;1.30;99.90;;;;;;5115386;28;20542;-76
2022/01/28 06:45:40;;;;;;;4.30;3.27;;;1.30;99.90;;;;;;5115296;28;20865;-76
2022/01/28 06:48:07;;;;;;;5.53;3.33;;;1.40;99.90;;;;;;5115489;28;20918;-77
2022/01/28 06:50:33;;;;;;;4.73;3.47;;;1.20;99.90;;;;;;5114354;28;20767;-76
2022/01/28 06:52:59;;;;;;;3.87;3.23;;;;;;;;;;5115237;28;20256;-77
2022/01/28 06:55:25;;;;;;;20.40;9.63;;;1.30;99.90;;;;;;5115058;28;20401;-77
2022/01/28 06:57:53;;;;;;;27.00;11.67;;;1.20;99.90;;;;;;5115167;28;20202;-76
2022/01/28 07:00:19;;;;;;;6.33;4.87;;;;;;;;;;5115006;28;20203;-77
2022/01/28 07:02:45;;;;;;;6.80;4.30;;;1.40;99.90;;;;;;5114932;28;20457;-77
2022/01/28 07:05:11;;;;;;;5.30;3.87;;;;;;;;;;5113896;28;20915;-77
2022/01/28 07:07:37;;;;;;;5.70;3.33;;;1.00;99.90;;;;;;5114985;28;20437;-77
2022/01/28 07:10:03;;;;;;;4.73;3.07;;;1.20;99.90;;;;;;5113723;28;20417;-77
2022/01/28 07:12:29;;;;;;;6.43;3.23;;;1.30;99.90;;;;;;5114883;28;20236;-77
2022/01/28 07:14:55;;;;;;;5.57;3.63;;;1.40;99.90;;;;;;5113618;28;20930;-77
2022/01/28 07:17:21;;;;;;;5.30;3.47;;;;;;;;;;5115060;28;20199;-77
2022/01/28 07:19:47;;;;;;;4.53;3.57;;;1.10;99.90;;;;;;5116286;28;20179;-77
2022/01/28 07:22:13;;;;;;;4.57;3.10;;;1.10;99.90;;;;;;5119275;28;20691;-77
2022/01/28 07:24:38;;;;;;;5.50;3.77;;;1.10;99.90;;;;;;5114835;28;20637;-77
2022/01/28 07:27:05;;;;;;;6.07;4.17;;;;;;;;;;5114861;28;20220;-77
2022/01/28 07:29:33;;;;;;;5.50;4.10;;;0.90;99.90;;;;;;5114800;28;20168;-76
2022/01/28 07:31:59;;;;;;;6.57;3.20;;;1.00;99.90;;;;;;5114746;28;20417;-76
2022/01/28 07:34:25;;;;;;;6.47;3.83;;;1.10;99.90;;;;;;5114398;28;20401;-77
2022/01/28 07:36:51;;;;;;;6.17;3.43;;;;;;;;;;5113195;28;20437;-77
2022/01/28 07:39:16;;;;;;;6.20;3.37;;;1.20;99.90;;;;;;5114686;28;20255;-78
2022/01/28 07:41:43;;;;;;;5.90;3.40;;;;;;;;;;5114492;28;20959;-77
2022/01/28 07:44:09;;;;;;;4.47;3.17;;;1.00;99.90;;;;;;5113112;28;20182;-77
2022/01/28 07:46:35;;;;;;;4.83;3.60;;;;;;;;;;5113263;28;20942;-77
2022/01/28 07:49:03;;;;;;;7.17;3.70;;;1.10;99.90;;;;;;5114703;28;20458;-77
2022/01/28 07:51:29;;;;;;;5.57;3.63;;;;;;;;;;5114294;28;20176;-77
2022/01/28 07:53:55;;;;;;;5.43;3.07;;;1.20;99.90;;;;;;5112894;28;20411;-77
2022/01/28 07:56:22;;;;;;;3.97;3.07;;;;;;;;;;5114276;28;20630;-77
2022/01/28 07:58:49;;;;;;;4.80;3.70;;;;;;;;;;5114019;28;20190;-76
2022/01/28 08:01:14;;;;;;;8.57;4.40;;;1.00;99.90;;;;;;5114532;28;20394;-76
2022/01/28 08:03:40;;;;;;;9.03;4.17;;;1.20;99.90;;;;;;5114184;28;20465;-77
2022/01/28 08:06:07;;;;;;;5.63;3.50;;;;;;;;;;5114174;28;20203;-77
2022/01/28 08:08:33;;;;;;;6.23;3.93;;;1.20;99.90;;;;;;5114227;28;20968;-77
2022/01/28 08:10:59;;;;;;;4.13;3.17;;;;;;;;;;5112824;28;20182;-76
2022/01/28 08:13:25;;;;;;;5.17;3.07;;;;;;;;;;5112678;28;20732;-76
2022/01/28 08:15:50;;;;;;;4.30;3.40;;;1.20;99.90;;;;;;5113730;28;20484;-76
2022/01/28 08:18:16;;;;;;;7.80;4.50;;;1.00;99.90;;;;;;5113882;28;20289;-76
2022/01/28 08:20:43;;;;;;;6.50;3.90;;;;;;;;;;5114124;28;20211;-76
2022/01/28 08:23:09;;;;;;;7.43;5.47;;;;;;;;;;5112503;28;20227;-77
2022/01/28 08:25:35;;;;;;;5.07;3.57;;;;;;;;;;5112386;28;20933;-77
2022/01/28 08:28:03;;;;;;;6.07;3.87;;;1.60;99.90;;;;;;5113830;28;20219;-77
2022/01/28 08:30:29;;;;;;;5.70;4.07;;;;;;;;;;5113896;28;20401;-77
2022/01/28 08:32:55;;;;;;;6.40;4.53;;;2.00;99.90;;;;;;5113871;28;20485;-76
2022/01/28 08:35:29;;;;;;;7.03;4.63;;;1.70;99.90;;;;;;5112315;28;20821;-77
2022/01/28 08:37:57;;;;;;;6.23;4.30;;;1.80;99.90;;;;;;5113721;28;20202;-77
2022/01/28 08:40:24;;;;;;;11.17;6.10;;;1.90;99.90;;;;;;5113997;28;20617;-77
2022/01/28 08:42:50;;;;;;;10.30;5.37;;;1.90;99.90;;;;;;5112316;28;20199;-77
2022/01/28 08:45:15;;;;;;;7.03;5.40;;;2.20;99.90;;;;;;5112727;28;20413;-77
2022/01/28 08:47:41;;;;;;;6.97;4.73;;;2.60;99.90;;;;;;5117412;28;20194;-77
2022/01/28 08:50:07;;;;;;;6.83;4.17;;;2.40;99.90;;;;;;5116519;28;20179;-77
2022/01/28 08:52:33;;;;;;;5.80;5.20;;;1.90;99.90;;;;;;5117782;28;20229;-77
2022/01/28 08:54:59;;;;;;;4.77;3.90;;;1.70;99.90;;;;;;5116341;28;20589;-77
2022/01/28 08:57:25;;;;;;;4.97;4.03;;;2.30;99.90;;;;;;5117484;28;20195;-77
2022/01/28 08:59:50;;;;;;;8.20;5.63;;;2.80;99.90;;;;;;5117691;28;20195;-77
2022/01/28 09:02:16;;;;;;;11.20;6.67;;;3.30;99.90;;;;;;5117530;28;20231;-77
2022/01/28 09:04:41;;;;;;;13.03;7.07;;;3.40;99.90;;;;;;5117749;28;20168;-77
2022/01/28 09:07:07;;;;;;;7.17;4.97;;;3.50;99.90;;;;;;5117722;28;20584;-77
2022/01/28 09:09:34;;;;;;;8.83;5.17;;;3.60;99.90;;;;;;5118040;28;20623;-77
2022/01/28 09:12:19;;;;;;;6.13;4.20;;;3.50;99.90;;;;;;5117827;28;20196;-77
2022/01/28 09:14:44;;;;;;;10.00;5.80;;;2.90;99.90;;;;;;5117490;28;20161;-77
2022/01/28 09:17:12;;;;;;;8.80;5.37;;;3.20;99.90;;;;;;5116064;28;20286;-78
2022/01/28 09:19:37;;;;;;;10.60;6.00;;;3.20;99.90;;;;;;5117336;28;20168;-78
2022/01/28 09:22:03;;;;;;;9.30;6.40;;;3.20;99.90;;;;;;5119650;28;20207;-78
2022/01/28 09:24:29;;;;;;;14.60;10.63;;;3.60;99.90;;;;;;5116688;28;20198;-77
2022/01/28 09:26:55;;;;;;;8.60;6.70;;;3.50;99.90;;;;;;5115877;28;20275;-77
2022/01/28 09:29:22;;;;;;;5.97;4.97;;;2.70;99.90;;;;;;5117313;28;20266;-77
2022/01/28 09:31:49;;;;;;;7.63;4.70;;;2.20;99.90;;;;;;5117398;28;20507;-78
2022/01/28 09:34:15;;;;;;;8.80;5.00;;;2.10;99.90;;;;;;5117032;28;20176;-77
2022/01/28 09:36:40;;;;;;;5.33;4.30;;;2.00;99.90;;;;;;5116956;28;20189;-77
2022/01/28 09:39:07;;;;;;;5.73;4.03;;;2.20;99.90;;;;;;5115736;28;20180;-77
2022/01/28 09:41:34;;;;;;;8.00;4.10;;;2.60;99.90;;;;;;5116797;28;20180;-77
2022/01/28 09:44:02;;;;;;;4.97;3.90;;;2.80;99.90;;;;;;5116677;28;20216;-77
2022/01/28 09:46:28;;;;;;;5.00;3.63;;;3.10;99.90;;;;;;5116620;28;20614;-78
2022/01/28 09:48:54;;;;;;;4.13;3.37;;;3.40;99.90;;;;;;5115372;28;20263;-77
2022/01/28 09:51:19;;;;;;;9.40;4.30;;;3.40;99.90;;;;;;5116988;28;20254;-77
2022/01/28 09:53:45;;;;;;;7.57;4.70;;;3.00;99.90;;;;;;5116623;28;20692;-77
2022/01/28 09:56:11;;;;;;;11.67;6.70;;;2.70;99.90;;;;;;5116258;28;20260;-78
2022/01/28 09:58:37;;;;;;;6.87;4.20;;;2.60;99.90;;;;;;5115074;28;20611;-77
2022/01/28 10:01:03;;;;;;;4.30;3.67;;;2.50;99.90;;;;;;5115016;28;20187;-78
2022/01/28 10:03:29;;;;;;;6.30;3.90;;;2.40;99.90;;;;;;5114911;28;20212;-78
2022/01/28 10:05:57;;;;;;;6.00;4.30;;;2.30;99.90;;;;;;5116105;28;20302;-78
2022/01/28 10:08:27;;;;;;;7.33;4.20;;;2.20;99.90;;;;;;5117208;28;20191;-77
2022/01/28 10:11:08;;;;;;;5.10;4.60;;;2.10;99.90;;;;;;5117529;28;20251;-77
2022/01/28 10:13:50;;;;;;;5.27;4.10;;;2.20;99.90;;;;;;5116248;28;20168;-77
2022/01/28 10:16:19;;;;;;;6.53;4.83;;;2.40;99.90;;;;;;5115825;28;20166;-77
2022/01/28 10:18:49;;;;;;;6.20;4.23;;;3.30;99.90;;;;;;5114727;28;20658;-77
2022/01/28 10:21:18;;;;;;;7.77;4.53;;;3.80;99.90;;;;;;5114684;28;20184;-77
2022/01/28 10:24:02;;;;;;;4.57;3.70;;;4.10;99.90;;;;;;5115914;28;20197;-77
2022/01/28 10:26:29;;;;;;;4.97;3.80;;;4.30;99.90;;;;;;5116143;28;20165;-77
2022/01/28 10:28:56;;;;;;;5.57;4.10;;;4.60;99.90;;;;;;5114502;28;20260;-77
2022/01/28 10:31:22;;;;;;;5.90;4.70;;;4.80;99.90;;;;;;5115850;28;20535;-77
2022/01/28 10:33:48;;;;;;;5.47;3.47;;;5.30;99.90;;;;;;5115776;28;20646;-77
2022/01/28 10:36:24;;;;;;;4.53;3.00;;;5.60;99.90;;;;;;5115642;28;20677;-77
2022/01/28 10:38:57;;;;;;;6.07;3.90;;;6.00;99.90;;;;;;5115757;28;20512;-77
2022/01/28 10:41:25;;;;;;;4.03;2.83;;;6.00;99.90;;;;;;5116003;28;20581;-77
2022/01/28 10:43:54;;;;;;;8.57;5.17;;;5.90;99.90;;;;;;5116032;28;20189;-77
2022/01/28 10:46:35;;;;;;;6.83;4.67;;;4.80;99.90;;;;;;5115534;28;20264;-77
2022/01/28 10:49:03;;;;;;;9.67;5.60;;;4.40;99.90;;;;;;5115489;28;20556;-77
2022/01/28 10:51:43;;;;;;;12.43;6.20;;;4.10;99.90;;;;;;5115287;28;20551;-77
2022/01/28 10:54:13;;;;;;;4.90;3.77;;;3.70;99.90;;;;;;5115201;28;20198;-77
2022/01/28 10:56:56;;;;;;;16.87;7.00;;;3.60;99.90;;;;;;5115242;28;20657;-77
2022/01/28 10:59:27;;;;;;;12.73;6.43;;;3.70;99.90;;;;;;5115385;28;20194;-77
2022/01/28 11:01:53;;;;;;;14.20;6.00;;;4.40;99.90;;;;;;5115187;28;20389;-77
2022/01/28 11:04:20;;;;;;;5.77;4.17;;;4.40;99.90;;;;;;5114967;28;20165;-77
2022/01/28 11:06:47;;;;;;;5.00;4.07;;;4.10;99.90;;;;;;5113850;28;20595;-77
2022/01/28 11:09:14;;;;;;;5.50;4.40;;;3.60;99.90;;;;;;5114864;28;20178;-77
2022/01/28 11:11:41;;;;;;;5.17;3.77;;;3.20;99.90;;;;;;5115772;28;20173;-77
2022/01/28 11:14:07;;;;;;;6.07;4.00;;;3.10;99.90;;;;;;5114837;28;20233;-78
2022/01/28 11:16:34;;;;;;;4.23;3.23;;;3.00;99.90;;;;;;5115098;28;20221;-77
2022/01/28 11:19:00;;;;;;;4.40;3.17;;;2.80;99.90;;;;;;5113645;28;20180;-77
2022/01/28 11:21:44;;;;;;;5.73;3.70;;;2.90;99.90;;;;;;5115068;28;20172;-77
2022/01/28 11:24:21;;;;;;;4.60;3.53;;;3.00;99.90;;;;;;5113199;28;20549;-77
2022/01/28 11:27:07;;;;;;;4.27;3.53;;;3.00;99.90;;;;;;5115021;28;20188;-78
2022/01/28 11:29:35;;;;;;;5.10;4.17;;;3.00;99.90;;;;;;5114567;28;20157;-77
2022/01/28 11:32:14;;;;;;;5.27;4.20;;;3.20;99.90;;;;;;5114970;28;20577;-77
2022/01/28 11:34:57;;;;;;;5.93;3.70;;;3.60;99.90;;;;;;5114820;28;20164;-77
2022/01/28 11:37:31;;;;;;;6.70;4.37;;;3.80;99.90;;;;;;5113135;28;20193;-77
2022/01/28 11:40:12;;;;;;;6.93;4.60;;;4.00;99.90;;;;;;5114594;28;20160;-77
2022/01/28 11:42:38;;;;;;;3.90;3.13;;;3.60;99.90;;;;;;5114531;28;20341;-77
2022/01/28 11:45:06;;;;;;;5.13;3.80;;;3.30;99.90;;;;;;5114115;28;20169;-77
2022/01/28 11:47:39;;;;;;;5.40;4.03;;;2.80;99.90;;;;;;5114198;28;20537;-77
2022/01/28 11:50:11;;;;;;;7.03;4.30;;;2.80;99.90;;;;;;5112930;28;20214;-77
2022/01/28 11:52:41;;;;;;;7.07;4.37;;;2.80;99.90;;;;;;5114069;28;20663;-77
2022/01/28 11:55:28;;;;;;;7.10;4.43;;;3.30;99.90;;;;;;5112768;28;20184;-77
2022/01/28 11:58:06;;;;;;;4.47;3.63;;;3.20;99.90;;;;;;5114196;28;20244;-77
2022/01/28 12:00:44;;;;;;;6.53;4.80;;;3.50;99.90;;;;;;5117778;28;20573;-79
2022/01/28 12:03:19;;;;;;;8.00;5.63;;;3.70;99.90;;;;;;5120775;28;20218;-80
2022/01/28 12:05:44;;;;;;;6.30;4.13;;;3.50;99.90;;;;;;5116971;28;20167;-78
2022/01/28 12:08:11;;;;;;;6.33;4.07;;;3.30;99.90;;;;;;5113732;28;20188;-79
2022/01/28 12:10:44;;;;;;;5.90;4.30;;;2.90;99.90;;;;;;5117073;28;20578;-78
2022/01/28 12:13:16;;;;;;;5.80;4.03;;;2.80;99.90;;;;;;5117131;28;20232;-79
2022/01/28 12:15:59;;;;;;;6.53;4.27;;;3.00;99.90;;;;;;5118695;28;20167;-79
2022/01/28 12:18:26;;;;;;;6.70;4.70;;;4.30;99.90;;;;;;5119170;28;20557;-79
2022/01/28 12:20:53;;;;;;;5.47;3.73;;;4.70;99.90;;;;;;5113693;28;20196;-78
2022/01/28 12:23:18;;;;;;;6.67;4.43;;;3.70;99.90;;;;;;5117866;28;20185;-80
2022/01/28 12:25:44;;;;;;;8.43;4.90;;;3.20;99.90;;;;;;5119587;28;20172;-79
2022/01/28 12:28:12;;;;;;;6.10;3.67;;;3.80;99.90;;;;;;5118720;28;20200;-79
2022/01/28 12:30:39;;;;;;;5.30;3.93;;;3.80;99.90;;;;;;5119504;28;20176;-79
2022/01/28 12:33:05;;;;;;;7.47;4.47;;;3.60;99.90;;;;;;5084362;27;20215;-78
2022/01/28 12:35:30;;;;;;;5.43;3.70;;;3.70;99.90;;;;;;5056604;28;20189;-79
2022/01/28 12:38:01;;;;;;;4.90;3.57;;;4.40;99.90;;;;;;5059638;28;20193;-78
2022/01/28 12:40:35;;;;;;;6.10;3.80;;;4.50;99.90;;;;;;5058329;28;20502;-79
2022/01/28 12:43:03;;;;;;;5.93;3.80;;;5.30;99.90;;;;;;5053035;28;20340;-79
2022/01/28 12:45:30;;;;;;;6.27;4.10;;;6.40;99.90;;;;;;5054843;28;20174;-79
2022/01/28 12:47:55;;;;;;;4.63;3.50;;;5.90;99.90;;;;;;5057124;28;20187;-79
2022/01/28 12:50:22;;;;;;;9.70;5.77;;;6.30;99.90;;;;;;5056471;28;20182;-79
2022/01/28 12:52:47;;;;;;;6.17;4.30;;;6.40;99.90;;;;;;5055946;28;20244;-79
2022/01/28 12:55:13;;;;;;;5.73;3.73;;;5.40;99.90;;;;;;5055131;28;20256;-78
2022/01/28 12:57:45;;;;;;;7.97;3.73;;;4.40;99.90;;;;;;5054431;28;20200;-78
2022/01/28 13:00:13;;;;;;;7.60;4.47;;;3.70;99.90;;;;;;5053640;28;20197;-79
2022/01/28 13:02:40;;;;;;;6.53;4.47;;;3.90;99.90;;;;;;5057290;28;20649;-79
2022/01/28 13:10:27;;;;;;;5.50;4.37;;;3.20;99.90;;;;;;5067787;28;20178;-78
2022/01/28 13:13:10;;;;;;;6.27;4.93;;;2.90;99.90;;;;;;5072079;28;20175;-79
2022/01/28 13:15:38;;;;;;;10.63;4.73;;;2.90;99.90;;;;;;5058771;28;20178;-78
2022/01/28 13:18:06;;;;;;;9.90;5.77;;;2.90;99.90;;;;;;5055673;28;20199;-78
2022/01/28 13:20:36;;;;;;;8.93;4.93;;;3.30;99.90;;;;;;5055305;28;20182;-80
2022/01/28 13:23:02;;;;;;;11.90;7.10;;;3.30;99.90;;;;;;5054095;28;20252;-79
2022/01/28 13:25:28;;;;;;;11.77;5.30;;;3.70;99.90;;;;;;5052964;28;20193;-78
2022/01/28 13:28:01;;;;;;;8.27;4.67;;;4.30;99.90;;;;;;5054086;28;20191;-79
2022/01/28 13:30:31;;;;;;;23.00;9.60;;;4.20;99.90;;;;;;5060916;28;20190;-80
2022/01/28 13:33:03;;;;;;;19.47;8.40;;;4.00;99.90;;;;;;5062637;28;20270;-80
2022/01/28 13:35:29;;;;;;;31.43;14.23;;;3.60;99.90;;;;;;5062914;28;20242;-81
2022/01/28 13:37:58;;;;;;;26.73;12.27;;;3.40;99.90;;;;;;5059413;28;20215;-77
2022/01/28 13:40:24;;;;;;;10.63;7.03;;;3.30;99.90;;;;;;5059537;28;20225;-81
2022/01/28 13:43:01;;;;;;;5.80;3.40;;;3.20;99.90;;;;;;5061304;28;20198;-78
2022/01/28 13:45:38;;;;;;;4.93;3.00;;;3.10;99.90;;;;;;5058332;28;20174;-79
2022/01/28 13:48:07;;;;;;;3.40;2.97;;;2.90;99.90;;;;;;5059898;28;20669;-78
2022/01/28 13:50:44;;;;;;;5.17;3.33;;;2.90;99.90;;;;;;5055909;28;20633;-77
2022/01/28 13:55:47;;;;;;;5.67;3.43;;;3.10;99.90;;;;;;5077966;28;20318;-78
2022/01/28 13:58:13;;;;;;;7.00;3.83;;;2.90;99.90;;;;;;5079638;28;20204;-78
2022/01/28 14:00:45;;;;;;;4.83;3.37;;;2.90;99.90;;;;;;5077631;28;20188;-78
2022/01/28 14:03:19;;;;;;;5.67;3.17;;;2.90;99.90;;;;;;5078327;28;20188;-78
2022/01/28 14:05:57;;;;;;;3.70;3.13;;;2.80;99.90;;;;;;5070645;28;20166;-78
2022/01/28 14:08:45;;;;;;;7.40;3.80;;;2.90;99.90;;;;;;5056658;28;20280;-78
2022/01/28 14:11:40;;;;;;;5.90;3.90;;;2.80;99.90;;;;;;5057517;28;20154;-77
2022/01/28 14:14:25;;;;;;;6.70;3.43;;;2.80;99.90;;;;;;5053597;28;20200;-78
2022/01/28 14:16:56;;;;;;;5.13;3.20;;;2.70;99.90;;;;;;5072843;28;20287;-79
2022/01/28 14:19:24;;;;;;;5.00;3.40;;;2.70;99.90;;;;;;5061029;28;20181;-78
2022/01/28 14:21:51;;;;;;;6.50;4.03;;;2.70;99.90;;;;;;5064009;28;20588;-78
2022/01/28 14:24:26;;;;;;;6.03;3.03;;;2.70;99.90;;;;;;5063038;28;20172;-79
2022/01/28 14:27:24;;;;;;;6.83;3.97;;;2.70;99.90;;;;;;5070036;28;20329;-78
2022/01/28 14:32:15;;;;;;;4.33;3.20;;;2.50;99.90;;;;;;5078862;28;20603;-78
2022/01/28 14:34:42;;;;;;;3.53;2.03;;;2.60;99.90;;;;;;5076337;28;20423;-79
2022/01/28 14:37:08;;;;;;;3.97;2.80;;;2.60;99.90;;;;;;5078760;28;20204;-78
2022/01/28 14:39:36;;;;;;;4.00;2.40;;;2.70;99.90;;;;;;5079984;28;20700;-78
2022/01/28 14:42:04;;;;;;;3.90;3.37;;;2.60;99.90;;;;;;5063259;28;20282;-79
2022/01/28 14:44:43;;;;;;;6.80;3.13;;;2.60;99.90;;;;;;5074828;28;20218;-78
2022/01/28 14:47:10;;;;;;;3.33;2.53;;;2.60;99.90;;;;;;5080615;28;20658;-79
2022/01/28 14:49:36;;;;;;;7.37;3.07;;;2.60;99.90;;;;;;5082669;28;20169;-79
2022/01/28 14:52:06;;;;;;;5.40;3.37;;;2.60;99.90;;;;;;5085691;28;20234;-78
2022/01/28 14:54:32;;;;;;;4.17;3.43;;;2.40;99.90;;;;;;5064953;28;20348;-78
2022/01/28 14:57:00;;;;;;;5.87;2.83;;;2.40;99.90;;;;;;5059138;28;20468;-78